Time;durP1;ratioP1;P1;durP2;ratioP2;P2;SDS_P1;SDS_P2;PMS_P1;PMS_P2;Temp;Humidity;BMP_temperature;BMP_pressure;BME280_temperature;BME280_humidity;BME280_pressure;Samples;Min_cycle;Max_cycle;Signal;HPM_P1;HPM_P2
2023/02/27 00:02:57;;;;;;;1.70;1.40;;;;;;;;;;10365927;28;20250;-58
2023/02/27 00:07:58;;;;;;;1.27;1.10;;;;;;;;;;10366140;28;20112;-58
2023/02/27 00:12:58;;;;;;;1.77;1.10;;;;;;;;;;10366977;28;20495;-57
2023/02/27 00:17:59;;;;;;;2.22;1.05;;;;;;;;;;10368393;28;20056;-57
2023/02/27 00:23:00;;;;;;;1.90;1.15;;;;;;;;;;10367614;28;20112;-57
2023/02/27 00:28:00;;;;;;;2.35;1.10;;;;;;;;;;10367604;28;20126;-57
2023/02/27 00:33:01;;;;;;;1.10;1.00;;;;;;;;;;10369429;28;20036;-57
2023/02/27 00:38:01;;;;;;;1.58;1.00;;;;;;;;;;10375974;28;20385;-57
2023/02/27 00:43:03;;;;;;;1.15;1.00;;;;;;;;;;10375532;28;20050;-57
2023/02/27 00:48:04;;;;;;;1.10;1.05;;;;;;;;;;10375584;28;20041;-57
2023/02/27 00:53:05;;;;;;;2.17;1.10;;;;;;;;;;10375904;28;20041;-57
2023/02/27 00:58:06;;;;;;;2.63;1.10;;;;;;;;;;10375830;28;20029;-56
2023/02/27 01:03:06;;;;;;;2.50;1.25;;;;;;;;;;10375006;28;20037;-57
2023/02/27 01:08:07;;;;;;;1.23;1.00;;;;;;;;;;10373951;28;20354;-57
2023/02/27 01:13:08;;;;;;;0.82;0.82;;;;;;;;;;10375049;28;20117;-57
2023/02/27 01:18:08;;;;;;;1.00;1.00;;;;;;;;;;10374517;28;20559;-57
2023/02/27 01:23:09;;;;;;;1.58;1.20;;;;;;;;;;10374628;28;20080;-57
2023/02/27 01:28:10;;;;;;;0.93;0.85;;;;;;;;;;10374557;28;20021;-58
2023/02/27 01:33:10;;;;;;;4.70;0.93;;;;;;;;;;10373825;28;20033;-58
2023/02/27 01:38:11;;;;;;;1.58;0.98;;;;;;;;;;10374082;28;20037;-58
2023/02/27 01:43:17;;;;;;;1.98;0.93;;;;;;;;;;10382042;28;20100;-58
2023/02/27 01:48:32;;;;;;;0.90;0.90;;;;;;;;;;10413608;28;20120;-58
2023/02/27 01:53:36;;;;;;;1.67;0.85;;;;;;;;;;10396630;28;20485;-59
2023/02/27 01:58:37;;;;;;;0.80;0.80;;;;;;;;;;10396981;28;20031;-58
2023/02/27 02:03:47;;;;;;;1.10;0.85;;;;;;;;;;10395943;28;20033;-58
2023/02/27 02:08:52;;;;;;;0.90;0.90;;;;;;;;;;10412332;28;20018;-58
2023/02/27 02:13:58;;;;;;;1.05;0.93;;;;;;;;;;10413631;28;20112;-58
2023/02/27 02:19:14;;;;;;;1.08;0.98;;;;;;;;;;10413127;28;20112;-59
2023/02/27 02:24:33;;;;;;;0.90;0.90;;;;;;;;;;10412871;28;20040;-58
2023/02/27 02:30:11;;;;;;;1.52;0.82;;;;;;;;;;10412671;28;20029;-58
2023/02/27 02:35:42;;;;;;;6.70;0.90;;;;;;;;;;10378253;28;20034;-53
2023/02/27 02:40:57;;;;;;;1.05;0.95;;;;;;;;;;10412494;28;20025;-57
2023/02/27 02:46:15;;;;;;;1.20;0.85;;;;;;;;;;10394570;28;20432;-53
2023/02/27 02:51:35;;;;;;;1.02;0.90;;;;;;;;;;10395857;28;20040;-55
2023/02/27 02:56:43;;;;;;;0.90;0.80;;;;;;;;;;10410726;28;20140;-53
2023/02/27 03:01:55;;;;;;;0.80;0.80;;;;;;;;;;10393773;28;20519;-57
2023/02/27 03:07:05;;;;;;;1.42;0.90;;;;;;;;;;10394348;28;20029;-57
2023/02/27 03:12:11;;;;;;;1.00;0.90;;;;;;;;;;10394138;28;20033;-57
2023/02/27 03:17:33;;;;;;;1.08;0.80;;;;;;;;;;10393428;28;20025;-57
2023/02/27 03:22:38;;;;;;;1.80;1.00;;;;;;;;;;10410562;28;20070;-57
2023/02/27 03:27:52;;;;;;;0.85;0.85;;;;;;;;;;10393431;28;20060;-57
2023/02/27 03:33:11;;;;;;;1.13;1.02;;;;;;;;;;10393081;28;20032;-57
2023/02/27 03:38:28;;;;;;;;;;;;;;;;;;10385398;28;20079;-57
2023/02/27 03:43:46;;;;;;;0.85;0.85;;;;;;;;;;10392085;28;19921;-57
2023/02/27 03:48:47;;;;;;;0.80;0.80;;;;;;;;;;10410112;28;20030;-57
2023/02/27 03:53:50;;;;;;;0.95;0.82;;;;;;;;;;10391621;28;20033;-57
2023/02/27 03:58:52;;;;;;;0.73;0.73;;;;;;;;;;10409174;28;20028;-57
2023/02/27 04:04:00;;;;;;;0.90;0.85;;;;;;;;;;10391621;28;20033;-57
2023/02/27 04:09:20;;;;;;;1.08;0.98;;;;;;;;;;10409076;28;20500;-56
2023/02/27 04:14:45;;;;;;;1.15;0.80;;;;;;;;;;10409197;28;20029;-55
2023/02/27 04:20:14;;;;;;;0.75;0.75;;;;;;;;;;10408665;28;20026;-54
2023/02/27 04:25:36;;;;;;;0.93;0.90;;;;;;;;;;10392489;28;20030;-66
2023/02/27 04:31:09;;;;;;;0.80;0.80;;;;;;;;;;10390919;28;20493;-67
2023/02/27 04:36:37;;;;;;;0.70;0.70;;;;;;;;;;10402331;28;20395;-66
2023/02/27 04:41:47;;;;;;;0.80;0.77;;;;;;;;;;10393703;28;20033;-65
2023/02/27 04:46:48;;;;;;;0.82;0.82;;;;;;;;;;10390861;28;20436;-66
2023/02/27 04:52:05;;;;;;;0.73;0.73;;;;;;;;;;10390407;28;20056;-65
2023/02/27 04:57:12;;;;;;;1.33;0.70;;;;;;;;;;10391136;28;20029;-64
2023/02/27 05:02:29;;;;;;;2.88;1.02;;;;;;;;;;10390527;28;20060;-65
2023/02/27 05:07:37;;;;;;;1.08;0.98;;;;;;;;;;10390592;28;20550;-67
2023/02/27 05:12:48;;;;;;;0.90;0.90;;;;;;;;;;10390390;28;20033;-67
2023/02/27 05:18:09;;;;;;;0.75;0.75;;;;;;;;;;10390571;28;20040;-58
2023/02/27 05:23:20;;;;;;;0.90;0.82;;;;;;;;;;10414188;28;20405;-57
2023/02/27 05:28:31;;;;;;;1.35;0.82;;;;;;;;;;10397837;28;20464;-57
2023/02/27 05:33:47;;;;;;;1.27;0.70;;;;;;;;;;10381395;28;20033;-57
2023/02/27 05:38:58;;;;;;;1.02;0.93;;;;;;;;;;10397425;28;20033;-58
2023/02/27 05:44:17;;;;;;;0.80;0.80;;;;;;;;;;10396721;28;20053;-57
2023/02/27 05:49:24;;;;;;;0.70;0.70;;;;;;;;;;10414278;28;20029;-58
2023/02/27 05:54:51;;;;;;;0.80;0.80;;;;;;;;;;10397022;28;20116;-57
2023/02/27 06:00:09;;;;;;;1.00;0.90;;;;;;;;;;10398637;28;20128;-57
2023/02/27 06:05:12;;;;;;;0.80;0.80;;;;;;;;;;10413695;28;20432;-56
2023/02/27 06:10:18;;;;;;;3.38;0.90;;;;;;;;;;10396179;28;20026;-58
2023/02/27 06:15:18;;;;;;;1.35;0.80;;;;;;;;;;10413726;28;20068;-59
2023/02/27 06:20:19;;;;;;;0.80;0.80;;;;;;;;;;10413153;28;20388;-57
2023/02/27 06:25:20;;;;;;;1.08;0.77;;;;;;;;;;10412571;28;20033;-67
2023/02/27 06:30:21;;;;;;;1.52;0.88;;;;;;;;;;10412927;28;20042;-66
2023/02/27 06:35:22;;;;;;;0.90;0.90;;;;;;;;;;10411929;28;20021;-64
2023/02/27 06:40:23;;;;;;;1.83;0.90;;;;;;;;;;10395110;28;20021;-65
2023/02/27 06:45:23;;;;;;;12.45;1.35;;;;;;;;;;10411914;28;20061;-66
2023/02/27 06:50:24;;;;;;;0.80;0.80;;;;;;;;;;10411699;28;20480;-66
2023/02/27 06:55:24;;;;;;;1.48;0.88;;;;;;;;;;10411057;28;20030;-66
2023/02/27 07:00:25;;;;;;;1.42;0.93;;;;;;;;;;10411368;28;20025;-58
2023/02/27 07:05:26;;;;;;;1.33;0.98;;;;;;;;;;10411116;28;20112;-56
2023/02/27 07:10:27;;;;;;;3.60;1.17;;;;;;;;;;10411194;28;20453;-57
2023/02/27 07:15:27;;;;;;;2.75;1.10;;;;;;;;;;10392545;28;20029;-58
2023/02/27 07:20:28;;;;;;;6.60;1.20;;;;;;;;;;10410528;28;20045;-53
2023/02/27 07:25:29;;;;;;;3.42;1.42;;;;;;;;;;10410229;28;20033;-61
2023/02/27 07:30:29;;;;;;;15.00;1.23;;;;;;;;;;10409902;28;20040;-60
2023/02/27 07:35:30;;;;;;;9.30;1.63;;;;;;;;;;10409977;28;20076;-60
2023/02/27 07:40:30;;;;;;;8.50;1.50;;;;;;;;;;10409813;28;20022;-66
2023/02/27 07:45:31;;;;;;;11.38;1.80;;;;;;;;;;10408940;28;20037;-61
2023/02/27 07:50:31;;;;;;;6.03;1.38;;;;;;;;;;10410209;28;20029;-60
2023/02/27 07:55:32;;;;;;;4.75;2.08;;;;;;;;;;10409525;28;20033;-60
2023/02/27 08:00:33;;;;;;;5.20;1.27;;;;;;;;;;10409258;28;20082;-60
2023/02/27 08:05:34;;;;;;;11.10;1.48;;;;;;;;;;10409036;28;20021;-60
2023/02/27 08:10:35;;;;;;;2.72;1.10;;;;;;;;;;10409492;28;20037;-61
2023/02/27 08:15:35;;;;;;;6.43;1.40;;;;;;;;;;10408952;28;20412;-60
2023/02/27 08:20:36;;;;;;;6.03;1.50;;;;;;;;;;10408869;28;20504;-60
2023/02/27 08:25:37;;;;;;;1.38;1.10;;;;;;;;;;10408707;28;20539;-60
2023/02/27 08:30:37;;;;;;;4.03;1.48;;;;;;;;;;10408601;28;20476;-60
2023/02/27 08:35:38;;;;;;;5.00;1.70;;;;;;;;;;10408487;28;20037;-67
2023/02/27 08:40:39;;;;;;;3.83;1.42;;;;;;;;;;10408793;28;20029;-60
2023/02/27 08:45:39;;;;;;;9.65;1.33;;;;;;;;;;10407826;28;20512;-64
2023/02/27 08:50:41;;;;;;;4.05;1.10;;;;;;;;;;10408504;28;20469;-61
2023/02/27 08:55:42;;;;;;;2.05;1.42;;;;;;;;;;10410378;28;20033;-60
2023/02/27 09:00:43;;;;;;;1.85;1.02;;;;;;;;;;10416499;28;20033;-70
2023/02/27 09:05:43;;;;;;;7.10;1.25;;;;;;;;;;10415838;28;20029;-62
2023/02/27 09:10:44;;;;;;;5.63;1.40;;;;;;;;;;10414935;28;20021;-60
2023/02/27 09:15:46;;;;;;;5.57;1.40;;;;;;;;;;10414740;28;20025;-67
2023/02/27 09:20:50;;;;;;;1.33;1.10;;;;;;;;;;10415254;28;20022;-60
2023/02/27 09:25:51;;;;;;;2.30;1.00;;;;;;;;;;10415468;28;20036;-60
2023/02/27 09:30:52;;;;;;;4.45;1.13;;;;;;;;;;10414855;28;20491;-62
2023/02/27 09:35:52;;;;;;;4.80;1.33;;;;;;;;;;10414339;28;20025;-60
2023/02/27 09:40:55;;;;;;;4.95;1.10;;;;;;;;;;10414271;28;20041;-60
2023/02/27 09:45:57;;;;;;;4.40;1.05;;;;;;;;;;10413873;28;20212;-61
2023/02/27 09:50:59;;;;;;;5.35;1.50;;;;;;;;;;10414649;28;20040;-60
2023/02/27 09:56:22;;;;;;;2.10;1.02;;;;;;;;;;10396443;28;20022;-60
2023/02/27 10:01:41;;;;;;;2.45;0.90;;;;;;;;;;10397208;28;20212;-60
2023/02/27 10:06:47;;;;;;;2.92;1.20;;;;;;;;;;10396439;28;20021;-60
2023/02/27 10:12:11;;;;;;;1.63;1.00;;;;;;;;;;10413668;28;20025;-70
2023/02/27 10:17:25;;;;;;;3.30;1.40;;;;;;;;;;10396531;28;20029;-64
2023/02/27 10:22:33;;;;;;;2.45;1.10;;;;;;;;;;10395745;28;20424;-61
2023/02/27 10:27:34;;;;;;;3.70;1.17;;;;;;;;;;10395619;28;20097;-62
2023/02/27 10:32:38;;;;;;;3.20;1.10;;;;;;;;;;10412516;28;20489;-60
2023/02/27 10:37:48;;;;;;;2.38;1.02;;;;;;;;;;10412324;28;20095;-60
2023/02/27 10:42:51;;;;;;;2.10;1.20;;;;;;;;;;10394550;28;20033;-60
2023/02/27 10:47:52;;;;;;;1.23;1.10;;;;;;;;;;10394536;28;20116;-60
2023/02/27 10:52:57;;;;;;;1.80;1.15;;;;;;;;;;10411540;28;20030;-60
2023/02/27 10:58:00;;;;;;;2.42;1.20;;;;;;;;;;10411593;28;20477;-61
2023/02/27 11:03:01;;;;;;;2.10;1.20;;;;;;;;;;10393920;28;20389;-61
2023/02/27 11:08:26;;;;;;;17.33;2.53;;;;;;;;;;10411519;28;20036;-61
2023/02/27 11:13:34;;;;;;;1.50;1.33;;;;;;;;;;10410748;28;20040;-71
2023/02/27 11:18:42;;;;;;;3.35;1.17;;;;;;;;;;10410551;28;20033;-61
2023/02/27 11:24:03;;;;;;;3.42;1.30;;;;;;;;;;10411118;28;20022;-61
2023/02/27 11:29:18;;;;;;;3.08;1.73;;;;;;;;;;10410308;28;20037;-68
2023/02/27 11:34:37;;;;;;;1.90;1.08;;;;;;;;;;10410188;28;20721;-60
2023/02/27 11:39:52;;;;;;;2.28;1.30;;;;;;;;;;10392871;28;20057;-61
2023/02/27 11:44:58;;;;;;;2.08;1.30;;;;;;;;;;10392092;28;20045;-61
2023/02/27 11:50:34;;;;;;;1.35;1.17;;;;;;;;;;10392349;28;20385;-61
2023/02/27 11:55:36;;;;;;;5.55;1.40;;;;;;;;;;10409944;28;20056;-61
2023/02/27 12:00:44;;;;;;;1.17;1.08;;;;;;;;;;10408782;28;20083;-68
2023/02/27 12:05:54;;;;;;;5.22;1.48;;;;;;;;;;10409190;28;20507;-60
2023/02/27 12:11:05;;;;;;;4.78;1.17;;;;;;;;;;10408700;28;20048;-60
2023/02/27 12:16:30;;;;;;;4.38;1.40;;;;;;;;;;10408719;28;20029;-60
2023/02/27 12:21:36;;;;;;;2.55;1.27;;;;;;;;;;10409141;28;20034;-61
2023/02/27 12:26:42;;;;;;;1.42;1.30;;;;;;;;;;10391928;28;20036;-61
2023/02/27 12:32:13;;;;;;;1.30;1.20;;;;;;;;;;10390653;28;20054;-68
2023/02/27 12:37:24;;;;;;;4.88;1.67;;;;;;;;;;10371665;28;20106;-61
2023/02/27 12:42:34;;;;;;;1.90;1.15;;;;;;;;;;10390621;28;20436;-61
2023/02/27 12:47:54;;;;;;;1.40;1.30;;;;;;;;;;10407981;28;20393;-61
2023/02/27 12:53:43;;;;;;;2.85;1.27;;;;;;;;;;10407835;28;20040;-61
2023/02/27 12:58:59;;;;;;;2.47;1.27;;;;;;;;;;10407901;28;20038;-60
2023/02/27 13:04:09;;;;;;;2.20;1.40;;;;;;;;;;10408271;28;20022;-61
2023/02/27 13:09:30;;;;;;;2.65;1.38;;;;;;;;;;10390952;28;20038;-61
2023/02/27 13:14:48;;;;;;;2.85;1.38;;;;;;;;;;10407501;28;20037;-60
2023/02/27 13:20:10;;;;;;;4.80;1.37;;;;;;;;;;10408099;28;20421;-60
2023/02/27 13:25:15;;;;;;;8.20;1.20;;;;;;;;;;10407524;28;20030;-71
2023/02/27 13:30:53;;;;;;;1.40;1.30;;;;;;;;;;10407188;28;20030;-71
2023/02/27 13:36:05;;;;;;;2.13;1.33;;;;;;;;;;10387471;28;20037;-72
2023/02/27 13:41:24;;;;;;;3.60;1.33;;;;;;;;;;10408888;28;20108;-72
2023/02/27 13:46:29;;;;;;;2.05;1.35;;;;;;;;;;10413816;28;20038;-72
2023/02/27 13:51:38;;;;;;;4.03;1.80;;;;;;;;;;10413939;28;20041;-71
2023/02/27 13:56:46;;;;;;;1.70;1.27;;;;;;;;;;10413638;28;20260;-61
2023/02/27 14:02:03;;;;;;;1.50;1.40;;;;;;;;;;10396446;28;20025;-73
2023/02/27 14:07:20;;;;;;;2.88;1.45;;;;;;;;;;10413419;28;20025;-71
2023/02/27 14:12:37;;;;;;;2.22;1.60;;;;;;;;;;10396923;28;20564;-73
2023/02/27 14:17:40;;;;;;;3.58;1.40;;;;;;;;;;10413330;28;20099;-61
2023/02/27 14:23:07;;;;;;;1.60;1.40;;;;;;;;;;10412213;28;20120;-63
2023/02/27 14:28:50;;;;;;;1.70;1.55;;;;;;;;;;10413013;28;20029;-61
2023/02/27 14:33:54;;;;;;;1.65;1.55;;;;;;;;;;10412043;28;20112;-62
2023/02/27 14:39:00;;;;;;;3.95;1.65;;;;;;;;;;10395227;28;20029;-61
2023/02/27 14:44:01;;;;;;;3.50;1.60;;;;;;;;;;10394384;28;20055;-62
2023/02/27 14:49:34;;;;;;;1.70;1.50;;;;;;;;;;10411452;28;20449;-61
2023/02/27 14:54:35;;;;;;;2.15;1.60;;;;;;;;;;10377925;28;20038;-60
2023/02/27 14:59:48;;;;;;;2.05;1.50;;;;;;;;;;10411716;28;20473;-60
2023/02/27 15:04:55;;;;;;;1.80;1.42;;;;;;;;;;10411562;28;20400;-61
2023/02/27 15:10:03;;;;;;;1.67;1.58;;;;;;;;;;10376681;28;20028;-61
2023/02/27 15:15:08;;;;;;;2.20;1.60;;;;;;;;;;10410328;28;20120;-65
2023/02/27 15:20:33;;;;;;;1.50;1.40;;;;;;;;;;10393790;28;21099;-61
2023/02/27 15:25:37;;;;;;;3.03;1.50;;;;;;;;;;10411126;28;20083;-61
2023/02/27 15:30:38;;;;;;;1.83;1.45;;;;;;;;;;10392784;28;20025;-61
2023/02/27 15:35:43;;;;;;;1.58;1.48;;;;;;;;;;10410392;28;20033;-61
2023/02/27 15:40:44;;;;;;;2.03;1.70;;;;;;;;;;10410823;28;20022;-61
2023/02/27 15:45:45;;;;;;;1.95;1.60;;;;;;;;;;10392319;28;20034;-61
2023/02/27 15:50:55;;;;;;;3.08;1.90;;;;;;;;;;10392541;28;20046;-61
2023/02/27 15:56:08;;;;;;;1.65;1.55;;;;;;;;;;10409710;28;20033;-61
2023/02/27 16:01:23;;;;;;;1.70;1.58;;;;;;;;;;10392883;28;20030;-61
2023/02/27 16:06:38;;;;;;;3.90;1.23;;;;;;;;;;10409316;28;20100;-61
2023/02/27 16:11:39;;;;;;;1.50;1.40;;;;;;;;;;10392728;28;20045;-61
2023/02/27 16:16:39;;;;;;;1.88;1.60;;;;;;;;;;10408781;28;20025;-60
2023/02/27 16:22:11;;;;;;;2.40;1.55;;;;;;;;;;10408670;28;20026;-61
2023/02/27 16:27:24;;;;;;;2.80;1.45;;;;;;;;;;10408843;28;20057;-61
2023/02/27 16:32:36;;;;;;;2.90;1.52;;;;;;;;;;10391649;28;20044;-61
2023/02/27 16:37:39;;;;;;;2.85;1.65;;;;;;;;;;10408926;28;20044;-60
2023/02/27 16:42:40;;;;;;;3.58;1.75;;;;;;;;;;10408451;28;20068;-61
2023/02/27 16:47:41;;;;;;;1.40;1.30;;;;;;;;;;10408483;28;20083;-61
2023/02/27 16:52:42;;;;;;;1.33;1.23;;;;;;;;;;10408706;28;20041;-61
2023/02/27 16:57:43;;;;;;;1.67;1.58;;;;;;;;;;10408241;28;20036;-60
2023/02/27 17:02:45;;;;;;;2.22;1.60;;;;;;;;;;10408362;28;20037;-61
2023/02/27 17:07:46;;;;;;;1.58;1.35;;;;;;;;;;10407780;28;20105;-61
2023/02/27 17:12:47;;;;;;;3.38;1.77;;;;;;;;;;10407557;28;20512;-60
2023/02/27 17:17:47;;;;;;;1.50;1.40;;;;;;;;;;10411972;28;20446;-60
2023/02/27 17:22:48;;;;;;;1.83;1.60;;;;;;;;;;10415397;28;20033;-63
2023/02/27 17:27:49;;;;;;;4.35;1.80;;;;;;;;;;10415330;28;20033;-58
2023/02/27 17:32:49;;;;;;;1.85;1.50;;;;;;;;;;10414417;28;20472;-58
2023/02/27 17:37:50;;;;;;;2.80;1.67;;;;;;;;;;10414240;28;20022;-63
2023/02/27 17:42:51;;;;;;;1.90;1.70;;;;;;;;;;10414615;28;20060;-57
2023/02/27 17:47:52;;;;;;;1.92;1.65;;;;;;;;;;10414824;28;20071;-61
2023/02/27 17:52:53;;;;;;;1.73;1.63;;;;;;;;;;10414072;28;20096;-58
2023/02/27 17:57:53;;;;;;;4.15;1.77;;;;;;;;;;10414534;28;20017;-58
2023/02/27 18:02:54;;;;;;;2.05;1.85;;;;;;;;;;10414936;28;20174;-66
2023/02/27 18:07:55;;;;;;;1.70;1.60;;;;;;;;;;10414472;28;20037;-59
2023/02/27 18:12:55;;;;;;;5.20;1.85;;;;;;;;;;10413622;28;20025;-57
2023/02/27 18:17:56;;;;;;;1.80;1.70;;;;;;;;;;10413001;28;20034;-58
2023/02/27 18:22:57;;;;;;;2.88;1.90;;;;;;;;;;10412999;28;20253;-57
2023/02/27 18:27:57;;;;;;;3.10;1.73;;;;;;;;;;10412283;28;20071;-58
2023/02/27 18:32:59;;;;;;;4.18;2.00;;;;;;;;;;10393092;28;20030;-73
2023/02/27 18:38:01;;;;;;;3.70;2.00;;;;;;;;;;10407342;28;20285;-58
2023/02/27 18:43:07;;;;;;;4.60;2.10;;;;;;;;;;10411394;28;20045;-58
2023/02/27 18:48:08;;;;;;;10.73;2.42;;;;;;;;;;10411497;28;20071;-58
2023/02/27 18:53:09;;;;;;;8.32;2.00;;;;;;;;;;10409499;28;20021;-58
2023/02/27 18:58:09;;;;;;;3.72;2.10;;;;;;;;;;10409207;28;20434;-58
2023/02/27 19:03:10;;;;;;;3.20;1.90;;;;;;;;;;10411592;28;20025;-58
2023/02/27 19:08:10;;;;;;;2.13;1.80;;;;;;;;;;10410179;28;20025;-59
2023/02/27 19:13:12;;;;;;;3.95;1.73;;;;;;;;;;10409014;28;20029;-58
2023/02/27 19:18:13;;;;;;;3.47;1.83;;;;;;;;;;10408784;28;20421;-58
2023/02/27 19:23:13;;;;;;;3.08;1.70;;;;;;;;;;10392373;28;20029;-58
2023/02/27 19:28:14;;;;;;;2.70;2.00;;;;;;;;;;10410555;28;20021;-58
2023/02/27 19:33:14;;;;;;;12.85;3.10;;;;;;;;;;10409911;28;20031;-53
2023/02/27 19:38:15;;;;;;;34.20;4.68;;;;;;;;;;10409501;28;20075;-58
2023/02/27 19:43:16;;;;;;;8.20;2.30;;;;;;;;;;10430793;23;20041;-59
2023/02/27 19:48:18;;;;;;;7.97;2.45;;;;;;;;;;10451280;28;20117;-59
2023/02/27 19:53:19;;;;;;;5.32;2.60;;;;;;;;;;10450351;28;20078;-59
2023/02/27 19:58:19;;;;;;;8.05;2.58;;;;;;;;;;10450502;28;20029;-58
2023/02/27 20:03:21;;;;;;;4.35;2.33;;;;;;;;;;10447869;28;20029;-60
2023/02/27 20:08:22;;;;;;;7.28;2.38;;;;;;;;;;10437670;28;20021;-62
2023/02/27 20:13:24;;;;;;;8.30;2.53;;;;;;;;;;10448289;28;20550;-67
2023/02/27 20:18:26;;;;;;;18.00;3.47;;;;;;;;;;10431748;28;20086;-70
2023/02/27 20:23:27;;;;;;;30.92;5.20;;;;;;;;;;10449851;28;20188;-69
2023/02/27 20:28:28;;;;;;;17.40;4.22;;;;;;;;;;10446507;28;20071;-61
2023/02/27 20:33:29;;;;;;;14.32;3.80;;;;;;;;;;10430919;28;20044;-61
2023/02/27 20:38:32;;;;;;;22.02;3.60;;;;;;;;;;10448663;28;20021;-62
2023/02/27 20:43:37;;;;;;;14.30;4.22;;;;;;;;;;10429438;28;20040;-62
2023/02/27 20:48:45;;;;;;;12.63;4.03;;;;;;;;;;10449452;28;20044;-60
2023/02/27 20:53:53;;;;;;;13.85;3.40;;;;;;;;;;10439490;28;20116;-59
2023/02/27 20:58:54;;;;;;;11.63;3.78;;;;;;;;;;10457917;28;20028;-61
2023/02/27 21:03:57;;;;;;;6.50;3.33;;;;;;;;;;10457930;28;20025;-67
2023/02/27 21:09:06;;;;;;;21.92;4.32;;;;;;;;;;10450183;28;20033;-64
2023/02/27 21:14:13;;;;;;;13.93;3.50;;;;;;;;;;10455343;28;20507;-58
2023/02/27 21:19:26;;;;;;;22.27;3.72;;;;;;;;;;10454684;28;20040;-58
2023/02/27 21:24:30;;;;;;;9.23;3.70;;;;;;;;;;10454371;28;20028;-59
2023/02/27 21:29:35;;;;;;;8.77;3.67;;;;;;;;;;10455385;28;20029;-58
2023/02/27 21:34:35;;;;;;;7.18;3.35;;;;;;;;;;10455055;28;20032;-58
2023/02/27 21:39:36;;;;;;;12.80;3.55;;;;;;;;;;10455492;28;20029;-60
2023/02/27 21:44:37;;;;;;;8.90;3.13;;;;;;;;;;10456370;28;20075;-58
2023/02/27 21:49:38;;;;;;;10.93;3.13;;;;;;;;;;10455317;28;20231;-58
2023/02/27 21:54:38;;;;;;;6.28;2.70;;;;;;;;;;10456563;28;20028;-58
2023/02/27 21:59:41;;;;;;;12.02;3.33;;;;;;;;;;10454984;28;20025;-58
2023/02/27 22:04:41;;;;;;;10.10;3.80;;;;;;;;;;10454743;28;20037;-58
2023/02/27 22:09:42;;;;;;;12.35;3.45;;;;;;;;;;10455697;28;20381;-58
2023/02/27 22:14:42;;;;;;;4.95;2.80;;;;;;;;;;10455369;28;20249;-58
2023/02/27 22:19:43;;;;;;;6.25;3.05;;;;;;;;;;10454625;28;20028;-58
2023/02/27 22:24:43;;;;;;;7.85;3.00;;;;;;;;;;10454969;28;20029;-58
2023/02/27 22:29:44;;;;;;;5.93;3.45;;;;;;;;;;10454947;28;20102;-57
2023/02/27 22:34:45;;;;;;;5.40;3.10;;;;;;;;;;10453951;28;20033;-57
2023/02/27 22:39:45;;;;;;;6.68;3.28;;;;;;;;;;10454104;28;20021;-57
2023/02/27 22:44:46;;;;;;;5.20;3.05;;;;;;;;;;10453422;28;20044;-57
2023/02/27 22:49:50;;;;;;;5.28;2.72;;;;;;;;;;10452811;28;20033;-58
2023/02/27 22:54:51;;;;;;;13.82;2.80;;;;;;;;;;10453871;28;20037;-58
2023/02/27 22:59:52;;;;;;;7.22;3.38;;;;;;;;;;10453501;28;20052;-58
2023/02/27 23:04:52;;;;;;;10.32;3.22;;;;;;;;;;10452522;28;20501;-58
2023/02/27 23:09:53;;;;;;;6.47;3.40;;;;;;;;;;10452818;28;20526;-57
2023/02/27 23:14:54;;;;;;;9.15;3.22;;;;;;;;;;10452891;28;20032;-57
2023/02/27 23:19:54;;;;;;;4.00;2.72;;;;;;;;;;10452646;28;20025;-58
2023/02/27 23:24:55;;;;;;;6.45;3.15;;;;;;;;;;10452188;28;20380;-57
2023/02/27 23:29:55;;;;;;;12.13;2.97;;;;;;;;;;10452201;28;20423;-57
2023/02/27 23:34:56;;;;;;;6.53;3.22;;;;;;;;;;10451936;28;20028;-57
2023/02/27 23:39:57;;;;;;;7.47;3.05;;;;;;;;;;10451664;28;20029;-57
2023/02/27 23:50:20;;;;;;;5.57;2.70;;;;;;;;;;10451245;28;20037;-58
2023/02/27 23:55:21;;;;;;;5.88;3.25;;;;;;;;;;10450915;28;20464;-58
